createdAt,value
2019-06-20T00:00:12.874Z,85.96
2019-06-20T00:01:12.870Z,85.36
2019-06-20T00:02:12.935Z,85.25
2019-06-20T00:03:12.841Z,85.36
2019-06-20T00:04:12.821Z,85.25
2019-06-20T00:05:12.809Z,84.45
2019-06-20T00:06:12.804Z,84.61
2019-06-20T00:07:12.809Z,84.45
2019-06-20T00:08:12.780Z,84.61
2019-06-20T00:09:12.766Z,84.81
2019-06-20T00:10:12.749Z,84.11
2019-06-20T00:11:12.756Z,83.60
2019-06-20T00:12:12.745Z,83.50
2019-06-20T00:13:12.765Z,83.10
2019-06-20T00:14:12.742Z,82.65
2019-06-20T00:15:12.698Z,82.65
2019-06-20T00:16:12.683Z,82.35
2019-06-20T00:17:12.679Z,82.45
2019-06-20T00:18:12.709Z,83.46
2019-06-20T00:19:12.675Z,82.15
2019-06-20T00:20:12.643Z,82.15
2019-06-20T00:21:12.625Z,81.85
2019-06-20T00:22:12.620Z,80.64
2019-06-20T00:23:12.618Z,81.10
2019-06-20T00:24:12.614Z,80.30
2019-06-20T00:25:12.586Z,80.30
2019-06-20T00:26:12.573Z,80.70
2019-06-20T00:27:12.588Z,80.66
2019-06-20T00:28:12.551Z,81.07
2019-06-20T00:29:12.560Z,80.36
2019-06-20T00:30:12.554Z,80.12
2019-06-20T00:31:12.515Z,80.26
2019-06-20T00:32:12.506Z,79.82
2019-06-20T00:33:12.505Z,80.02
2019-06-20T00:34:12.520Z,79.96
2019-06-20T00:35:12.482Z,80.12
2019-06-20T00:36:12.488Z,80.22
2019-06-20T00:37:12.449Z,80.52
2019-06-20T00:38:12.439Z,79.92
2019-06-20T00:39:12.459Z,80.32
2019-06-20T00:40:12.474Z,80.52
2019-06-20T00:41:12.428Z,80.93
2019-06-20T00:42:12.452Z,80.36
2019-06-20T00:43:17.641Z,80.22
2019-06-20T00:44:12.436Z,80.43
2019-06-20T00:45:12.360Z,80.32
2019-06-20T00:46:12.386Z,80.93
2019-06-20T00:47:12.390Z,80.43
2019-06-20T00:48:12.349Z,80.52
2019-06-20T00:49:12.323Z,80.22
2019-06-20T00:50:12.313Z,80.46
2019-06-20T00:51:12.289Z,80.32
2019-06-20T00:52:12.303Z,80.06
2019-06-20T00:53:12.288Z,79.66
2019-06-20T00:54:12.281Z,80.00
2019-06-20T00:55:12.253Z,79.86
2019-06-20T00:56:12.266Z,80.26
2019-06-20T00:57:12.223Z,80.66
2019-06-20T00:58:12.219Z,80.16
2019-06-20T00:59:12.221Z,80.66
2019-06-20T01:00:12.236Z,80.97
2019-06-20T01:01:12.180Z,80.26
2019-06-20T01:02:12.169Z,80.50
2019-06-20T01:03:12.165Z,81.21
2019-06-20T01:04:12.158Z,80.70
2019-06-20T01:05:12.152Z,80.70
2019-06-20T01:06:12.132Z,80.60
2019-06-20T01:07:12.108Z,80.80
2019-06-20T01:08:12.099Z,81.57
2019-06-20T01:09:12.110Z,81.37
2019-06-20T01:10:12.097Z,81.41
2019-06-20T01:11:12.093Z,81.07
2019-06-20T01:12:12.054Z,82.01
2019-06-20T01:13:12.051Z,80.90
2019-06-20T01:14:12.044Z,80.77
2019-06-20T01:15:12.035Z,81.27
2019-06-20T01:16:12.058Z,80.66
2019-06-20T01:17:11.996Z,80.57
2019-06-20T01:18:11.991Z,80.26
2019-06-20T01:19:12.002Z,80.16
2019-06-20T01:20:11.978Z,79.96
2019-06-20T01:21:11.978Z,80.06
2019-06-20T01:22:11.963Z,79.86
2019-06-20T01:23:11.930Z,80.57
2019-06-20T01:24:11.921Z,80.26
2019-06-20T01:25:11.922Z,80.26
2019-06-20T01:26:11.917Z,80.46
2019-06-20T01:27:11.908Z,80.06
2019-06-20T01:28:11.891Z,79.86
2019-06-20T01:29:11.869Z,80.06
2019-06-20T01:30:11.855Z,80.06
2019-06-20T01:31:11.853Z,80.16
2019-06-20T01:32:11.886Z,80.87
2019-06-20T01:33:11.833Z,79.96
2019-06-20T01:34:11.837Z,80.66
2019-06-20T01:35:11.802Z,80.52
2019-06-20T01:36:11.849Z,80.02
2019-06-20T01:37:11.856Z,80.12
2019-06-20T01:38:11.784Z,80.26
2019-06-20T01:39:11.769Z,80.87
2019-06-20T01:40:11.768Z,80.32
2019-06-20T01:41:11.733Z,79.92
2019-06-20T01:42:11.721Z,79.92
2019-06-20T01:43:11.724Z,79.92
2019-06-20T01:44:11.707Z,78.91
2019-06-20T01:45:11.701Z,80.02
2019-06-20T01:46:11.725Z,79.82
2019-06-20T01:47:11.660Z,79.82
2019-06-20T01:48:11.707Z,80.52
2019-06-20T01:49:11.649Z,80.43
2019-06-20T01:50:11.648Z,80.12
2019-06-20T01:51:11.646Z,80.93
2019-06-20T01:52:11.651Z,80.63
2019-06-20T01:53:11.648Z,80.52
2019-06-20T01:54:11.597Z,81.43
2019-06-20T01:55:11.582Z,80.93
2019-06-20T01:56:11.628Z,81.03
2019-06-20T01:57:11.580Z,82.34
2019-06-20T01:58:11.545Z,82.64
2019-06-20T01:59:11.534Z,83.04
2019-06-20T02:00:11.539Z,83.04
2019-06-20T02:01:11.537Z,83.65
2019-06-20T02:02:11.520Z,82.54
2019-06-20T02:03:11.502Z,82.18
2019-06-20T02:04:11.480Z,80.57
2019-06-20T02:05:11.521Z,79.66
2019-06-20T02:06:11.454Z,80.06
2019-06-20T02:07:11.464Z,79.46
2019-06-20T02:08:11.565Z,79.25
2019-06-20T02:09:11.442Z,79.36
2019-06-20T02:10:11.414Z,78.55
2019-06-20T02:11:11.423Z,76.94
2019-06-20T02:12:11.421Z,76.50
2019-06-20T02:13:11.383Z,74.99
2019-06-20T02:14:11.384Z,74.29
2019-06-20T02:15:11.370Z,73.88
2019-06-20T02:16:11.357Z,74.25
2019-06-20T02:17:11.359Z,72.94
2019-06-20T02:18:11.394Z,72.54
2019-06-20T02:19:11.358Z,73.04
2019-06-20T02:20:11.321Z,72.94
2019-06-20T02:21:11.313Z,73.11
2019-06-20T02:22:11.276Z,73.00
2019-06-20T02:23:11.267Z,72.61
2019-06-20T02:24:11.250Z,71.70
2019-06-20T02:25:11.248Z,72.10
2019-06-20T02:26:11.307Z,72.50
2019-06-20T02:27:11.269Z,71.90
2019-06-20T02:28:11.258Z,72.00
2019-06-20T02:29:11.195Z,71.90
2019-06-20T02:30:11.194Z,71.60
2019-06-20T02:31:11.193Z,72.30
2019-06-20T02:32:11.180Z,72.61
2019-06-20T02:33:11.156Z,72.71
2019-06-20T02:34:11.147Z,72.30
2019-06-20T02:35:11.153Z,72.41
2019-06-20T02:36:11.128Z,72.50
2019-06-20T02:37:11.121Z,73.11
2019-06-20T02:38:11.120Z,73.51
2019-06-20T02:39:11.120Z,73.61
2019-06-20T02:40:11.084Z,74.21
2019-06-20T02:41:11.058Z,73.81
2019-06-20T02:42:11.065Z,74.25
2019-06-20T02:43:11.059Z,74.35
2019-06-20T02:44:28.520Z,75.56
2019-06-20T02:45:11.060Z,74.55
2019-06-20T02:46:11.025Z,74.55
2019-06-20T02:47:11.005Z,75.56
2019-06-20T02:48:11.014Z,77.17
2019-06-20T02:49:10.987Z,79.18
2019-06-20T02:50:10.989Z,76.97
2019-06-20T02:51:10.942Z,75.79
2019-06-20T02:52:10.934Z,76.56
2019-06-20T02:53:10.922Z,77.20
2019-06-20T02:54:10.928Z,76.50
2019-06-20T02:55:10.927Z,76.40
2019-06-20T02:56:10.895Z,76.90
2019-06-20T02:57:10.887Z,77.31
2019-06-20T02:58:10.874Z,77.20
2019-06-20T02:59:10.857Z,78.91
2019-06-20T03:00:10.917Z,79.52
2019-06-20T03:01:10.855Z,78.91
2019-06-20T03:02:10.825Z,78.31
2019-06-20T03:03:10.836Z,77.91
2019-06-20T03:04:10.800Z,77.34
2019-06-20T03:05:10.836Z,78.05
2019-06-20T03:06:10.807Z,79.86
2019-06-20T03:07:10.795Z,79.46
2019-06-20T03:08:10.784Z,79.46
2019-06-20T03:09:10.749Z,79.05
2019-06-20T03:10:10.742Z,78.75
2019-06-20T03:11:10.748Z,79.56
2019-06-20T03:12:10.774Z,79.46
2019-06-20T03:13:10.725Z,78.05
2019-06-20T03:14:10.738Z,78.65
2019-06-20T03:15:10.675Z,78.75
2019-06-20T03:16:10.762Z,79.39
2019-06-20T03:17:10.672Z,78.99
2019-06-20T03:18:10.669Z,78.79
2019-06-20T03:19:10.636Z,78.79
2019-06-20T03:20:10.757Z,78.99
2019-06-20T03:21:10.647Z,79.39
2019-06-20T03:22:10.635Z,78.89
2019-06-20T03:23:10.592Z,78.79
2019-06-20T03:24:10.597Z,79.39
2019-06-20T03:25:10.567Z,80.00
2019-06-20T03:26:10.557Z,79.49
2019-06-20T03:27:10.549Z,79.49
2019-06-20T03:28:10.545Z,79.39
2019-06-20T03:29:10.530Z,79.39
2019-06-20T03:30:10.536Z,79.29
2019-06-20T03:31:10.508Z,79.19
2019-06-20T03:32:10.496Z,79.29
2019-06-20T03:33:10.475Z,79.39
2019-06-20T03:34:10.496Z,79.60
2019-06-20T03:35:10.476Z,79.90
2019-06-20T03:36:10.470Z,79.80
2019-06-20T03:37:10.496Z,79.90
2019-06-20T03:38:10.418Z,79.60
2019-06-20T03:39:10.404Z,79.90
2019-06-20T03:40:10.425Z,79.60
2019-06-20T03:41:10.394Z,79.73
2019-06-20T03:42:10.376Z,80.04
2019-06-20T03:43:10.370Z,79.90
2019-06-20T03:44:10.349Z,80.13
2019-06-20T03:45:10.338Z,80.04
2019-06-20T03:46:10.363Z,80.04
2019-06-20T03:47:10.337Z,80.24
2019-06-20T03:48:10.361Z,80.24
2019-06-20T03:49:10.293Z,80.30
2019-06-20T03:50:10.280Z,81.04
2019-06-20T03:51:10.281Z,80.84
2019-06-20T03:52:10.282Z,80.33
2019-06-20T03:53:10.302Z,81.10
2019-06-20T03:54:10.294Z,80.44
2019-06-20T03:55:10.226Z,80.74
2019-06-20T03:56:10.216Z,80.74
2019-06-20T03:57:10.213Z,80.94
2019-06-20T03:58:10.235Z,80.64
2019-06-20T03:59:10.210Z,81.04
2019-06-20T04:00:10.171Z,80.70
2019-06-20T04:01:10.188Z,81.15
2019-06-20T04:02:10.153Z,81.01
2019-06-20T04:03:10.164Z,80.70
2019-06-20T04:04:10.185Z,81.21
2019-06-20T04:05:10.115Z,80.90
2019-06-20T04:06:10.106Z,80.94
2019-06-20T04:07:10.090Z,81.35
2019-06-20T04:08:10.091Z,80.94
2019-06-20T04:09:10.088Z,82.05
2019-06-20T04:10:10.095Z,81.45
2019-06-20T04:11:10.047Z,81.35
2019-06-20T04:12:10.042Z,81.65
2019-06-20T04:13:10.034Z,81.85
2019-06-20T04:14:10.021Z,81.45
2019-06-20T04:15:18.969Z,81.95
2019-06-20T04:16:10.040Z,81.35
2019-06-20T04:17:09.986Z,81.95
2019-06-20T04:18:09.972Z,81.45
2019-06-20T04:19:10.044Z,81.45
2019-06-20T04:20:09.953Z,81.35
2019-06-20T04:21:09.966Z,82.05
2019-06-20T04:22:09.951Z,81.75
2019-06-20T04:23:09.919Z,82.45
2019-06-20T04:24:09.899Z,82.35
2019-06-20T04:25:09.890Z,82.35
2019-06-20T04:26:09.905Z,83.16
2019-06-20T04:27:09.887Z,82.96
2019-06-20T04:28:09.854Z,82.76
2019-06-20T04:29:09.846Z,82.86
2019-06-20T04:30:09.834Z,83.06
2019-06-20T04:31:09.900Z,83.16
2019-06-20T04:32:09.832Z,82.96
2019-06-20T04:33:09.819Z,82.96
2019-06-20T04:34:09.791Z,83.02
2019-06-20T04:35:09.781Z,83.36
2019-06-20T04:36:09.773Z,82.65
2019-06-20T04:37:09.779Z,82.21
2019-06-20T04:38:09.752Z,83.32
2019-06-20T04:39:18.629Z,83.52
2019-06-20T04:40:09.724Z,82.82
2019-06-20T04:41:09.707Z,82.82
2019-06-20T04:42:09.707Z,82.51
2019-06-20T04:43:09.689Z,82.92
2019-06-20T04:44:09.686Z,83.02
2019-06-20T04:45:09.683Z,82.71
2019-06-20T04:46:09.650Z,82.96
2019-06-20T04:47:09.649Z,82.51
2019-06-20T04:48:09.630Z,82.65
2019-06-20T04:49:09.655Z,82.92
2019-06-20T04:50:09.633Z,82.82
2019-06-20T04:51:09.621Z,82.42
2019-06-20T04:52:09.641Z,81.30
2019-06-20T04:53:09.574Z,81.51
2019-06-20T04:54:09.602Z,81.71
2019-06-20T04:55:09.582Z,81.51
2019-06-20T04:56:09.559Z,81.61
2019-06-20T04:57:09.583Z,82.11
2019-06-20T04:58:09.516Z,81.41
2019-06-20T04:59:09.512Z,81.21
2019-06-20T05:00:09.519Z,81.57
2019-06-20T05:01:09.531Z,81.71
2019-06-20T05:02:09.487Z,81.81
2019-06-20T05:03:09.495Z,81.47
2019-06-20T05:04:09.481Z,82.18
2019-06-20T05:05:09.447Z,81.81
2019-06-20T05:06:09.436Z,83.22
2019-06-20T05:07:09.435Z,82.38
2019-06-20T05:08:09.431Z,83.12
2019-06-20T05:09:09.394Z,82.98
2019-06-20T05:10:09.384Z,82.82
2019-06-20T05:11:09.386Z,82.68
2019-06-20T05:12:09.368Z,82.48
2019-06-20T05:13:09.395Z,82.68
2019-06-20T05:14:09.356Z,82.38
2019-06-20T05:15:09.323Z,82.18
2019-06-20T05:16:09.317Z,82.24
2019-06-20T05:17:09.305Z,82.04
2019-06-20T05:18:09.309Z,81.43
2019-06-20T05:19:09.302Z,82.04
2019-06-20T05:20:09.298Z,81.23
2019-06-20T05:21:09.257Z,81.33
2019-06-20T05:22:09.253Z,80.49
2019-06-20T05:23:09.246Z,81.09
2019-06-20T05:24:09.243Z,80.52
2019-06-20T05:25:09.228Z,80.58
2019-06-20T05:26:09.203Z,80.39
2019-06-20T05:27:09.192Z,80.49
2019-06-20T05:28:09.181Z,80.79
2019-06-20T05:29:09.293Z,81.29
2019-06-20T05:30:09.171Z,80.99
2019-06-20T05:31:09.168Z,82.20
2019-06-20T05:32:09.139Z,82.40
2019-06-20T05:33:09.126Z,82.20
2019-06-20T05:34:09.110Z,81.39
2019-06-20T05:35:09.143Z,81.09
2019-06-20T05:36:09.107Z,81.09
2019-06-20T05:37:09.096Z,80.49
2019-06-20T05:38:09.070Z,80.58
2019-06-20T05:39:09.066Z,80.69
2019-06-20T05:40:09.059Z,80.79
2019-06-20T05:41:09.049Z,80.39
2019-06-20T05:42:09.042Z,80.99
2019-06-20T05:43:09.008Z,80.89
2019-06-20T05:44:09.008Z,80.69
2019-06-20T05:45:09.025Z,80.58
2019-06-20T05:46:11.140Z,80.58
2019-06-20T05:47:13.547Z,80.49
2019-06-20T05:48:08.968Z,80.35
2019-06-20T05:49:08.984Z,79.64
2019-06-20T05:50:08.931Z,79.18
2019-06-20T05:51:08.925Z,80.08
2019-06-20T05:52:08.920Z,79.99
2019-06-20T05:53:08.918Z,80.39
2019-06-20T05:54:08.906Z,80.58
2019-06-20T05:55:08.880Z,79.85
2019-06-20T05:56:08.876Z,80.69
2019-06-20T05:57:08.855Z,79.48
2019-06-20T05:58:08.872Z,79.14
2019-06-20T05:59:08.864Z,79.44
2019-06-20T06:00:08.919Z,79.85
2019-06-20T06:01:08.889Z,79.94
2019-06-20T06:02:08.804Z,80.15
2019-06-20T06:03:08.788Z,80.25
2019-06-20T06:04:08.995Z,79.94
2019-06-20T06:05:08.790Z,79.85
2019-06-20T06:06:08.756Z,79.94
2019-06-20T06:07:08.744Z,80.05
2019-06-20T06:08:08.727Z,80.05
2019-06-20T06:09:09.662Z,80.55
2019-06-20T06:10:08.726Z,79.61
2019-06-20T06:11:08.710Z,79.21
2019-06-20T06:12:09.772Z,79.61
2019-06-20T06:13:08.687Z,78.46
2019-06-20T06:14:08.667Z,78.60
2019-06-20T06:15:08.662Z,78.56
2019-06-20T06:16:22.573Z,78.16
2019-06-20T06:17:08.689Z,78.97
2019-06-20T06:18:08.621Z,79.23
2019-06-20T06:19:08.606Z,77.76
2019-06-20T06:20:08.599Z,78.66
2019-06-20T06:21:08.595Z,78.36
2019-06-20T06:22:08.587Z,78.16
2019-06-20T06:23:08.585Z,78.36
2019-06-20T06:24:08.545Z,77.66
2019-06-20T06:25:08.538Z,78.27
2019-06-20T06:26:08.542Z,78.42
2019-06-20T06:27:08.527Z,78.53
2019-06-20T06:28:12.115Z,77.83
2019-06-20T06:29:08.492Z,76.48
2019-06-20T06:30:08.494Z,76.08
2019-06-20T06:31:08.465Z,76.58
2019-06-20T06:32:08.482Z,77.09
2019-06-20T06:33:08.482Z,78.69
2019-06-20T06:34:08.467Z,76.25
2019-06-20T06:35:08.424Z,75.95
2019-06-20T06:36:08.414Z,76.58
2019-06-20T06:37:08.402Z,75.38
2019-06-20T06:38:08.432Z,76.15
2019-06-20T06:39:08.417Z,76.28
2019-06-20T06:40:08.388Z,74.74
2019-06-20T06:41:08.356Z,75.34
2019-06-20T06:42:08.349Z,76.38
2019-06-20T06:43:08.474Z,75.04
2019-06-20T06:44:08.587Z,75.27
2019-06-20T06:45:08.330Z,76.18
2019-06-20T06:46:08.323Z,76.68
2019-06-20T06:47:08.287Z,76.58
2019-06-20T06:48:08.298Z,76.18
2019-06-20T06:49:08.284Z,76.58
2019-06-20T06:50:08.262Z,76.18
2019-06-20T06:51:08.261Z,76.68
2019-06-20T06:52:08.233Z,76.28
2019-06-20T06:53:08.233Z,74.68
2019-06-20T06:54:08.255Z,76.28
2019-06-20T06:55:08.209Z,76.58
2019-06-20T06:56:08.198Z,74.88
2019-06-20T06:57:08.199Z,76.08
2019-06-20T06:58:08.165Z,74.77
2019-06-20T06:59:08.162Z,74.98
2019-06-20T07:00:08.159Z,74.84
2019-06-20T07:01:10.323Z,75.08
2019-06-20T07:02:08.139Z,74.54
2019-06-20T07:03:08.144Z,74.77
2019-06-20T07:04:08.099Z,73.47
2019-06-20T07:05:08.150Z,74.77
2019-06-20T07:06:08.073Z,74.14
2019-06-20T07:07:08.091Z,74.37
2019-06-20T07:08:08.069Z,74.14
2019-06-20T07:09:08.100Z,73.54
2019-06-20T07:10:08.086Z,73.44
2019-06-20T07:11:08.015Z,74.27
2019-06-20T07:12:08.035Z,73.33
2019-06-20T07:13:08.018Z,74.34
2019-06-20T07:14:07.996Z,73.40
2019-06-20T07:15:07.975Z,72.30
2019-06-20T07:16:07.971Z,72.27
2019-06-20T07:17:07.947Z,71.66
2019-06-20T07:18:07.948Z,72.06
2019-06-20T07:19:07.942Z,72.73
2019-06-20T07:20:07.937Z,71.03
2019-06-20T07:21:07.910Z,70.73
2019-06-20T07:22:07.899Z,70.62
2019-06-20T07:23:07.906Z,70.83
2019-06-20T07:24:07.901Z,70.23
2019-06-20T07:25:07.872Z,70.69
2019-06-20T07:26:07.890Z,70.76
2019-06-20T07:27:07.846Z,70.56
2019-06-20T07:28:07.883Z,69.66
2019-06-20T07:29:07.821Z,70.26
2019-06-20T07:30:07.812Z,70.26
2019-06-20T07:31:07.809Z,70.46
2019-06-20T07:32:07.814Z,70.46
2019-06-20T07:33:07.800Z,71.36
2019-06-20T07:34:07.762Z,72.00
2019-06-20T07:35:07.773Z,72.80
2019-06-20T07:36:07.751Z,72.60
2019-06-20T07:37:07.772Z,73.70
2019-06-20T07:38:07.739Z,73.10
2019-06-20T07:39:07.712Z,73.50
2019-06-20T07:40:07.692Z,72.53
2019-06-20T07:41:07.712Z,72.43
2019-06-20T07:42:07.725Z,73.33
2019-06-20T07:43:07.678Z,72.86
2019-06-20T07:44:07.650Z,73.03
2019-06-20T07:45:07.690Z,71.63
2019-06-20T07:46:07.623Z,72.83
2019-06-20T07:47:17.066Z,72.13
2019-06-20T07:48:08.604Z,72.23
2019-06-20T07:49:07.625Z,73.47
2019-06-20T07:50:07.581Z,73.57
2019-06-20T07:51:07.586Z,73.83
2019-06-20T07:52:07.558Z,70.93
2019-06-20T07:53:07.563Z,72.13
2019-06-20T07:54:07.551Z,72.03
2019-06-20T07:55:07.523Z,71.33
2019-06-20T07:56:09.513Z,71.56
2019-06-20T07:57:07.508Z,72.06
2019-06-20T07:58:07.929Z,72.36
2019-06-20T07:59:07.506Z,72.47
2019-06-20T08:00:07.496Z,73.33
2019-06-20T08:01:07.455Z,74.03
2019-06-20T08:02:07.444Z,73.03
2019-06-20T08:03:07.482Z,71.53
2019-06-20T08:04:07.443Z,72.73
2019-06-20T08:05:07.440Z,73.13
2019-06-20T08:06:07.430Z,72.13
2019-06-20T08:07:07.398Z,73.03
2019-06-20T08:08:07.378Z,71.50
2019-06-20T08:09:07.387Z,71.23
2019-06-20T08:10:07.384Z,71.93
2019-06-20T08:11:07.365Z,72.43
2019-06-20T08:12:07.374Z,73.13
2019-06-20T08:13:07.328Z,72.53
2019-06-20T08:14:07.320Z,71.66
2019-06-20T08:15:15.133Z,72.36
2019-06-20T08:16:07.304Z,73.27
2019-06-20T08:17:07.304Z,73.36
2019-06-20T08:18:07.320Z,73.86
2019-06-20T08:19:07.318Z,74.17
2019-06-20T08:20:07.248Z,74.17
2019-06-20T08:21:07.241Z,74.67
2019-06-20T08:22:07.260Z,74.57
2019-06-20T08:23:07.236Z,77.17
2019-06-20T08:24:07.247Z,75.41
2019-06-20T08:25:07.193Z,78.28
2019-06-20T08:26:07.261Z,76.11
2019-06-20T08:27:07.196Z,75.51
2019-06-20T08:28:07.174Z,76.25
2019-06-20T08:29:18.658Z,78.55
2019-06-20T08:30:07.334Z,77.05
2019-06-20T08:31:07.122Z,78.69
2019-06-20T08:32:07.129Z,81.30
2019-06-20T08:33:11.754Z,80.60
2019-06-20T08:34:08.089Z,80.30
2019-06-20T08:35:07.125Z,80.60
2019-06-20T08:36:07.119Z,80.90
2019-06-20T08:37:07.051Z,80.40
2019-06-20T08:38:07.576Z,80.70
2019-06-20T08:39:07.071Z,79.39
2019-06-20T08:40:07.042Z,81.50
2019-06-20T08:41:07.025Z,80.90
2019-06-20T08:42:07.018Z,83.04
2019-06-20T08:43:06.985Z,82.24
2019-06-20T08:44:06.988Z,82.84
2019-06-20T08:45:06.971Z,82.34
2019-06-20T08:46:10.217Z,82.14
2019-06-20T08:47:06.940Z,82.24
2019-06-20T08:48:07.438Z,81.64
2019-06-20T08:49:06.927Z,81.34
2019-06-20T08:50:06.941Z,80.43
2019-06-20T08:51:06.949Z,82.04
2019-06-20T08:52:06.920Z,83.45
2019-06-20T08:53:06.876Z,81.14
2019-06-20T08:54:06.874Z,80.90
2019-06-20T08:55:06.853Z,82.54
2019-06-20T08:56:06.860Z,81.70
2019-06-20T08:57:06.874Z,81.60
2019-06-20T08:58:06.847Z,84.45
2019-06-20T08:59:06.804Z,84.21
2019-06-20T09:02:06.830Z,82.10
2019-06-20T09:03:06.805Z,81.00
2019-06-20T09:04:06.778Z,80.66
2019-06-20T09:05:06.771Z,81.46
2019-06-20T09:06:06.749Z,81.26
2019-06-20T09:07:06.760Z,80.76
2019-06-20T09:08:06.750Z,81.87
2019-06-20T09:09:06.718Z,82.23
2019-06-20T09:10:06.679Z,80.32
2019-06-20T09:11:06.670Z,81.32
2019-06-20T09:12:06.663Z,80.82
2019-06-20T09:13:06.710Z,81.82
2019-06-20T09:14:06.684Z,81.62
2019-06-20T09:15:06.667Z,79.62
2019-06-20T09:16:06.617Z,80.18
2019-06-20T09:17:06.605Z,79.78
2019-06-20T09:18:06.631Z,80.28
2019-06-20T09:19:06.584Z,80.18
2019-06-20T09:20:06.577Z,79.38
2019-06-20T09:21:06.578Z,78.84
2019-06-20T09:22:06.551Z,78.24
2019-06-20T09:23:06.598Z,77.64
2019-06-20T09:24:06.526Z,76.14
2019-06-20T09:25:06.523Z,76.34
2019-06-20T09:26:06.523Z,76.94
2019-06-20T09:27:06.535Z,77.14
2019-06-20T09:28:06.490Z,78.70
2019-06-20T09:29:06.476Z,78.34
2019-06-20T09:30:06.460Z,77.54
2019-06-20T09:31:06.451Z,76.70
2019-06-20T09:32:06.504Z,76.70
2019-06-20T09:33:06.450Z,76.80
2019-06-20T09:34:06.429Z,76.10
2019-06-20T09:35:06.408Z,76.56
2019-06-20T09:36:06.396Z,77.26
2019-06-20T09:37:06.388Z,74.96
2019-06-20T09:38:06.387Z,76.46
2019-06-20T09:39:06.402Z,74.06
2019-06-20T09:40:06.351Z,74.76
2019-06-20T09:41:06.333Z,74.37
2019-06-20T09:42:06.337Z,73.86
2019-06-20T09:43:06.324Z,73.46
2019-06-20T09:44:06.334Z,72.66
2019-06-20T09:45:06.297Z,73.36
2019-06-20T09:46:06.280Z,74.16
2019-06-20T09:47:06.280Z,74.37
2019-06-20T09:48:06.272Z,73.36
2019-06-20T09:49:06.267Z,74.63
2019-06-20T09:50:06.276Z,72.92
2019-06-20T09:51:06.225Z,69.96
2019-06-20T09:52:06.210Z,70.23
2019-06-20T09:53:06.203Z,70.12
2019-06-20T09:54:06.197Z,69.73
2019-06-20T09:55:06.239Z,68.62
2019-06-20T09:56:06.170Z,69.12
2019-06-20T09:57:06.166Z,70.12
2019-06-20T09:58:06.145Z,68.43
2019-06-20T09:59:06.140Z,68.43
2019-06-20T10:00:10.452Z,68.52
2019-06-20T10:01:06.139Z,68.96
2019-06-20T10:02:06.102Z,69.82
2019-06-20T10:03:06.088Z,71.53
2019-06-20T10:04:06.077Z,71.76
2019-06-20T10:05:06.105Z,71.92
2019-06-20T10:06:14.046Z,72.03
2019-06-20T10:07:06.074Z,73.22
2019-06-20T10:08:06.049Z,72.72
2019-06-20T10:09:06.023Z,69.23
2019-06-20T10:10:06.010Z,69.99
2019-06-20T10:11:06.046Z,69.39
2019-06-20T10:12:06.033Z,68.59
2019-06-20T10:13:06.011Z,68.99
2019-06-20T10:14:05.966Z,68.49
2019-06-20T10:15:05.957Z,68.56
2019-06-20T10:16:05.942Z,66.66
2019-06-20T10:17:06.028Z,66.66
2019-06-20T10:18:05.939Z,65.86
2019-06-20T10:19:05.935Z,66.39
2019-06-20T10:20:05.903Z,66.16
2019-06-20T10:21:05.886Z,66.59
2019-06-20T10:22:05.927Z,66.79
2019-06-20T10:23:05.900Z,66.76
2019-06-20T10:24:05.916Z,67.66
2019-06-20T10:25:05.879Z,67.26
2019-06-20T10:26:05.867Z,67.26
2019-06-20T10:27:05.861Z,67.33
2019-06-20T10:28:05.844Z,66.33
2019-06-20T10:29:05.822Z,65.93
2019-06-20T10:30:14.338Z,65.40
2019-06-20T10:31:05.785Z,66.63
2019-06-20T10:32:05.764Z,66.80
2019-06-20T10:33:05.767Z,66.50
2019-06-20T10:34:05.755Z,66.70
2019-06-20T10:35:05.748Z,64.67
2019-06-20T10:36:05.782Z,63.97
2019-06-20T10:37:05.709Z,65.26
2019-06-20T10:38:05.703Z,64.57
2019-06-20T10:39:05.693Z,66.66
2019-06-20T10:40:05.688Z,67.16
2019-06-20T10:41:06.462Z,65.67
2019-06-20T10:42:05.653Z,64.34
2019-06-20T10:43:05.706Z,63.44
2019-06-20T10:44:05.706Z,64.01
2019-06-20T10:45:05.619Z,62.71
2019-06-20T10:46:05.624Z,61.19
2019-06-20T10:47:05.632Z,62.38
2019-06-20T10:48:05.624Z,59.79
2019-06-20T10:49:05.585Z,59.96
2019-06-20T10:50:05.568Z,60.36
2019-06-20T10:51:05.579Z,60.69
2019-06-20T10:52:05.554Z,60.06
2019-06-20T10:53:05.549Z,60.96
2019-06-20T10:54:05.553Z,62.15
2019-06-20T10:55:05.510Z,61.06
2019-06-20T10:56:05.495Z,63.12
2019-06-20T10:57:05.515Z,62.85
2019-06-20T10:58:05.489Z,61.33
2019-06-20T10:59:05.539Z,62.40
2019-06-20T11:00:05.453Z,61.99
2019-06-20T11:01:05.442Z,59.51
2019-06-20T11:02:07.225Z,59.31
2019-06-20T11:03:05.438Z,59.61
2019-06-20T11:04:05.436Z,60.03
2019-06-20T11:05:05.424Z,59.14
2019-06-20T11:06:05.396Z,59.53
2019-06-20T11:07:05.408Z,60.16
2019-06-20T11:08:05.402Z,58.54
2019-06-20T11:09:05.371Z,57.67
2019-06-20T11:10:05.358Z,59.23
2019-06-20T11:11:05.358Z,58.84
2019-06-20T11:12:05.366Z,59.14
2019-06-20T11:13:05.336Z,58.74
2019-06-20T11:14:05.295Z,59.01
2019-06-20T11:15:05.312Z,58.94
2019-06-20T11:16:05.290Z,59.23
2019-06-20T11:17:05.292Z,59.83
2019-06-20T11:18:05.270Z,59.31
2019-06-20T11:19:05.239Z,59.41
2019-06-20T11:20:05.256Z,59.11
2019-06-20T11:21:05.254Z,57.42
2019-06-20T11:22:05.233Z,58.91
2019-06-20T11:23:05.200Z,59.01
2019-06-20T11:24:05.189Z,59.21
2019-06-20T11:25:05.200Z,59.41
2019-06-20T11:26:05.170Z,58.01
2019-06-20T11:27:05.170Z,57.69
2019-06-20T11:28:05.168Z,58.01
2019-06-20T11:29:05.135Z,57.99
2019-06-20T11:30:05.171Z,59.01
2019-06-20T11:31:05.107Z,57.49
2019-06-20T11:32:05.108Z,57.89
2019-06-20T11:33:05.100Z,56.99
2019-06-20T11:34:05.101Z,57.29
2019-06-20T11:35:05.093Z,57.49
2019-06-20T11:36:05.064Z,57.71
2019-06-20T11:37:05.049Z,58.31
2019-06-20T11:38:05.045Z,59.08
2019-06-20T11:39:05.037Z,58.18
2019-06-20T11:40:05.071Z,58.18
2019-06-20T11:41:05.010Z,57.49
2019-06-20T11:42:04.998Z,57.19
2019-06-20T11:43:04.978Z,57.96
2019-06-20T11:44:04.995Z,58.86
2019-06-20T11:45:04.979Z,55.87
2019-06-20T11:46:04.986Z,57.86
2019-06-20T11:47:04.937Z,58.65
2019-06-20T11:48:04.929Z,57.64
2019-06-20T11:49:04.921Z,55.87
2019-06-20T11:50:04.912Z,57.17
2019-06-20T11:51:04.920Z,59.68
2019-06-20T11:52:04.884Z,59.55
2019-06-20T11:53:04.863Z,57.59
2019-06-20T11:54:04.889Z,58.36
2019-06-20T11:55:04.857Z,59.88
2019-06-20T11:56:04.887Z,60.44
2019-06-20T11:57:04.849Z,58.75
2019-06-20T11:58:04.812Z,58.26
2019-06-20T11:59:04.806Z,56.14
2019-06-20T12:00:04.788Z,56.54
2019-06-20T12:01:04.791Z,55.85
2019-06-20T12:02:04.860Z,59.03
2019-06-20T12:03:04.789Z,58.03
2019-06-20T12:04:04.770Z,58.90
2019-06-20T12:05:04.734Z,56.51
2019-06-20T12:06:04.721Z,56.51
2019-06-20T12:07:04.755Z,59.19
2019-06-20T12:08:04.720Z,58.80
2019-06-20T12:09:04.689Z,58.70
2019-06-20T12:10:04.678Z,57.38
2019-06-20T12:11:04.675Z,55.99
2019-06-20T12:12:04.702Z,53.14
2019-06-20T12:13:04.663Z,53.93
2019-06-20T12:14:04.666Z,53.83
2019-06-20T12:15:07.045Z,53.53
2019-06-20T12:16:04.611Z,54.33
2019-06-20T12:17:04.603Z,54.43
2019-06-20T12:18:05.036Z,53.66
2019-06-20T12:19:04.606Z,53.96
2019-06-20T12:20:04.588Z,57.34
2019-06-20T12:21:04.554Z,57.46
2019-06-20T12:22:04.551Z,56.37
2019-06-20T12:23:04.560Z,56.47
2019-06-20T12:24:04.549Z,55.74
2019-06-20T12:25:04.525Z,56.07
2019-06-20T12:26:04.528Z,56.84
2019-06-20T12:27:04.499Z,58.53
2019-06-20T12:28:04.482Z,57.73
2019-06-20T12:29:04.470Z,57.34
2019-06-20T12:30:04.473Z,55.65
2019-06-20T12:31:18.646Z,56.47
2019-06-20T12:32:04.455Z,57.43
2019-06-20T12:33:04.495Z,57.93
2019-06-20T12:34:04.414Z,58.33
2019-06-20T12:35:04.401Z,58.83
2019-06-20T12:36:04.413Z,57.64
2019-06-20T12:37:04.397Z,55.74
2019-06-20T12:38:04.389Z,57.34
2019-06-20T12:39:04.370Z,55.77
2019-06-20T12:40:04.345Z,57.26
2019-06-20T12:41:04.351Z,58.09
2019-06-20T12:42:04.348Z,58.75
2019-06-20T12:43:04.340Z,58.58
2019-06-20T12:44:04.328Z,57.56
2019-06-20T12:45:04.298Z,57.46
2019-06-20T12:46:04.279Z,57.26
2019-06-20T12:47:04.271Z,57.36
2019-06-20T12:48:04.263Z,58.69
2019-06-20T12:49:04.313Z,56.10
2019-06-20T12:50:04.234Z,57.49
2019-06-20T12:51:04.226Z,58.28
2019-06-20T12:52:04.212Z,57.59
2019-06-20T12:53:04.205Z,57.59
2019-06-20T12:54:04.223Z,56.57